createdAt,value
2022-12-27T00:00:05.129Z,378.00
2022-12-27T00:00:35.114Z,378.00
2022-12-27T00:01:05.128Z,377.00
2022-12-27T00:01:35.184Z,377.00
2022-12-27T00:02:05.231Z,379.00
2022-12-27T00:02:35.350Z,380.00
2022-12-27T00:03:05.370Z,379.00
2022-12-27T00:03:35.375Z,378.00
2022-12-27T00:04:05.487Z,377.00
2022-12-27T00:04:35.586Z,377.00
2022-12-27T00:05:05.720Z,376.00
2022-12-27T00:05:35.709Z,376.00
2022-12-27T00:06:05.815Z,378.00
2022-12-27T00:06:35.940Z,375.00
2022-12-27T00:07:06.038Z,375.00
2022-12-27T00:07:36.149Z,375.00
2022-12-27T00:08:06.277Z,376.00
2022-12-27T00:08:36.387Z,376.00
2022-12-27T00:09:06.397Z,377.00
2022-12-27T00:09:36.514Z,376.00
2022-12-27T00:10:06.618Z,378.00
2022-12-27T00:10:36.625Z,380.00
2022-12-27T00:11:06.729Z,381.00
2022-12-27T00:11:36.845Z,382.00
2022-12-27T00:12:06.948Z,374.00
2022-12-27T00:12:37.069Z,374.00
2022-12-27T00:13:07.191Z,374.00
2022-12-27T00:13:37.178Z,375.00
2022-12-27T00:14:07.300Z,375.00
2022-12-27T00:14:37.403Z,375.00
2022-12-27T00:15:07.536Z,375.00
2022-12-27T00:15:37.627Z,374.00
2022-12-27T00:16:07.779Z,374.00
2022-12-27T00:16:37.849Z,374.00
2022-12-27T00:17:07.859Z,375.00
2022-12-27T00:17:37.974Z,376.00
2022-12-27T00:18:08.091Z,380.00
2022-12-27T00:18:38.210Z,381.00
2022-12-27T00:19:08.325Z,379.00
2022-12-27T00:19:38.443Z,380.00
2022-12-27T00:20:11.652Z,380.00
2022-12-27T00:20:38.555Z,379.00
2022-12-27T00:21:08.669Z,378.00
2022-12-27T00:21:38.779Z,378.00
2022-12-27T00:22:08.892Z,377.00
2022-12-27T00:22:39.005Z,375.00
2022-12-27T00:23:09.121Z,376.00
2022-12-27T00:23:39.218Z,376.00
2022-12-27T00:24:09.328Z,377.00
2022-12-27T00:24:39.401Z,380.00
2022-12-27T00:25:09.469Z,381.00
2022-12-27T00:25:39.543Z,382.00
2022-12-27T00:26:09.627Z,383.00
2022-12-27T00:26:39.702Z,384.00
2022-12-27T00:27:09.778Z,382.00
2022-12-27T00:27:39.875Z,383.00
2022-12-27T00:28:09.944Z,382.00
2022-12-27T00:28:40.024Z,383.00
2022-12-27T00:29:10.093Z,384.00
2022-12-27T00:29:40.166Z,384.00
2022-12-27T00:30:10.234Z,383.00
2022-12-27T00:30:40.420Z,383.00
2022-12-27T00:31:10.391Z,381.00
2022-12-27T00:31:40.425Z,382.00
2022-12-27T00:32:10.400Z,382.00
2022-12-27T00:32:40.497Z,382.00
2022-12-27T00:33:10.566Z,383.00
2022-12-27T00:33:40.641Z,381.00
2022-12-27T00:34:10.677Z,381.00
2022-12-27T00:34:40.789Z,379.00
2022-12-27T00:35:10.903Z,382.00
2022-12-27T00:35:41.013Z,380.00
2022-12-27T00:36:11.133Z,379.00
2022-12-27T00:36:41.240Z,380.00
2022-12-27T00:37:11.359Z,381.00
2022-12-27T00:37:41.489Z,380.00
2022-12-27T00:38:11.469Z,379.00
2022-12-27T00:38:41.586Z,378.00
2022-12-27T00:39:11.697Z,377.00
2022-12-27T00:39:41.814Z,378.00
2022-12-27T00:40:11.915Z,378.00
2022-12-27T00:40:42.035Z,379.00
2022-12-27T00:41:12.148Z,380.00
2022-12-27T00:41:42.263Z,380.00
2022-12-27T00:42:12.364Z,379.00
2022-12-27T00:42:42.502Z,378.00
2022-12-27T00:43:12.489Z,378.00
2022-12-27T00:43:42.599Z,377.00
2022-12-27T00:44:12.723Z,376.00
2022-12-27T00:44:42.823Z,377.00
2022-12-27T00:45:12.937Z,378.00
2022-12-27T00:45:43.096Z,379.00
2022-12-27T00:46:13.100Z,379.00
2022-12-27T00:46:43.074Z,379.00
2022-12-27T00:47:13.185Z,378.00
2022-12-27T00:47:43.319Z,376.00
2022-12-27T00:48:13.287Z,376.00
2022-12-27T00:48:43.402Z,376.00
2022-12-27T00:49:13.512Z,376.00
2022-12-27T00:49:43.676Z,376.00
2022-12-27T00:50:13.639Z,377.00
2022-12-27T00:50:43.748Z,377.00
2022-12-27T00:51:13.866Z,375.00
2022-12-27T00:51:43.982Z,374.00
2022-12-27T00:52:14.083Z,375.00
2022-12-27T00:52:44.198Z,373.00
2022-12-27T00:53:14.311Z,373.00
2022-12-27T00:53:44.430Z,374.00
2022-12-27T00:54:14.545Z,371.00
2022-12-27T00:54:44.652Z,371.00
2022-12-27T00:55:14.765Z,372.00
2022-12-27T00:55:44.872Z,372.00
2022-12-27T00:56:15.007Z,374.00
2022-12-27T00:56:45.120Z,373.00
2022-12-27T00:57:15.222Z,373.00
2022-12-27T00:57:45.318Z,372.00
2022-12-27T00:58:15.441Z,376.00
2022-12-27T00:58:45.432Z,375.00
2022-12-27T00:59:15.555Z,373.00
2022-12-27T00:59:45.655Z,374.00
2022-12-27T01:00:15.773Z,375.00
2022-12-27T01:00:45.953Z,375.00
2022-12-27T01:01:16.118Z,375.00
2022-12-27T01:01:46.149Z,376.00
2022-12-27T01:02:16.111Z,376.00
2022-12-27T01:02:46.116Z,374.00
2022-12-27T01:03:16.238Z,372.00
2022-12-27T01:03:46.300Z,370.00
2022-12-27T01:04:16.301Z,372.00
2022-12-27T01:04:46.414Z,373.00
2022-12-27T01:05:16.530Z,375.00
2022-12-27T01:05:46.616Z,375.00
2022-12-27T01:06:16.754Z,376.00
2022-12-27T01:06:46.847Z,376.00
2022-12-27T01:07:16.961Z,376.00
2022-12-27T01:07:47.068Z,376.00
2022-12-27T01:08:17.187Z,377.00
2022-12-27T01:08:47.290Z,377.00
2022-12-27T01:09:17.405Z,378.00
2022-12-27T01:09:47.525Z,377.00
2022-12-27T01:10:17.642Z,376.00
2022-12-27T01:10:47.631Z,375.00
2022-12-27T01:11:17.740Z,374.00
2022-12-27T01:11:47.858Z,373.00
2022-12-27T01:12:17.970Z,374.00
2022-12-27T01:12:48.087Z,374.00
2022-12-27T01:13:18.207Z,373.00
2022-12-27T01:13:48.316Z,373.00
2022-12-27T01:14:18.430Z,373.00
2022-12-27T01:14:48.542Z,372.00
2022-12-27T01:15:18.563Z,372.00
2022-12-27T01:15:48.537Z,374.00
2022-12-27T01:16:18.739Z,374.00
2022-12-27T01:16:48.869Z,374.00
2022-12-27T01:17:18.750Z,375.00
2022-12-27T01:17:48.862Z,376.00
2022-12-27T01:18:18.989Z,378.00
2022-12-27T01:18:49.008Z,378.00
2022-12-27T01:19:18.992Z,379.00
2022-12-27T01:19:49.093Z,380.00
2022-12-27T01:20:19.210Z,381.00
2022-12-27T01:20:49.319Z,382.00
2022-12-27T01:21:19.461Z,381.00
2022-12-27T01:21:49.546Z,381.00
2022-12-27T01:22:19.658Z,381.00
2022-12-27T01:22:49.771Z,379.00
2022-12-27T01:23:19.902Z,377.00
2022-12-27T01:23:50.009Z,377.00
2022-12-27T01:24:20.102Z,379.00
2022-12-27T01:24:50.162Z,378.00
2022-12-27T01:25:20.246Z,378.00
2022-12-27T01:25:50.318Z,377.00
2022-12-27T01:26:20.388Z,377.00
2022-12-27T01:26:50.494Z,376.00
2022-12-27T01:27:20.543Z,375.00
2022-12-27T01:27:50.616Z,372.00
2022-12-27T01:28:20.692Z,375.00
2022-12-27T01:28:50.773Z,376.00
2022-12-27T01:29:20.847Z,377.00
2022-12-27T01:29:50.918Z,376.00
2022-12-27T01:30:21.005Z,375.00
2022-12-27T01:30:51.069Z,374.00
2022-12-27T01:31:21.350Z,373.00
2022-12-27T01:31:51.256Z,372.00
2022-12-27T01:32:21.318Z,375.00
2022-12-27T01:32:51.390Z,374.00
2022-12-27T01:33:21.478Z,375.00
2022-12-27T01:33:51.561Z,373.00
2022-12-27T01:34:21.666Z,374.00
2022-12-27T01:34:51.763Z,374.00
2022-12-27T01:35:21.882Z,373.00
2022-12-27T01:35:51.990Z,373.00
2022-12-27T01:36:22.104Z,373.00
2022-12-27T01:36:52.221Z,373.00
2022-12-27T01:37:22.324Z,373.00
2022-12-27T01:37:52.455Z,373.00
2022-12-27T01:38:22.438Z,373.00
2022-12-27T01:38:52.561Z,372.00
2022-12-27T01:39:22.670Z,373.00
2022-12-27T01:39:52.684Z,372.00
2022-12-27T01:40:22.676Z,371.00
2022-12-27T01:40:52.791Z,368.00
2022-12-27T01:41:22.904Z,368.00
2022-12-27T01:41:53.015Z,369.00
2022-12-27T01:42:23.124Z,371.00
2022-12-27T01:42:53.286Z,371.00
2022-12-27T01:43:23.261Z,371.00
2022-12-27T01:43:53.383Z,371.00
2022-12-27T01:44:23.367Z,372.00
2022-12-27T01:44:53.480Z,372.00
2022-12-27T01:45:23.585Z,372.00
2022-12-27T01:45:53.621Z,372.00
2022-12-27T01:46:23.594Z,371.00
2022-12-27T01:46:53.732Z,372.00
2022-12-27T01:47:23.821Z,370.00
2022-12-27T01:47:53.948Z,369.00
2022-12-27T01:48:23.932Z,369.00
2022-12-27T01:48:54.051Z,371.00
2022-12-27T01:49:24.155Z,371.00
2022-12-27T01:49:54.260Z,372.00
2022-12-27T01:50:24.381Z,370.00
2022-12-27T01:50:54.492Z,370.00
2022-12-27T01:51:24.605Z,370.00
2022-12-27T01:51:54.716Z,370.00
2022-12-27T01:52:24.825Z,370.00
2022-12-27T01:52:54.940Z,369.00
2022-12-27T01:53:25.058Z,371.00
2022-12-27T01:53:55.165Z,367.00
2022-12-27T01:54:25.283Z,367.00
2022-12-27T01:54:55.387Z,365.00
2022-12-27T01:55:25.506Z,367.00
2022-12-27T01:55:55.618Z,370.00
2022-12-27T01:56:25.732Z,371.00
2022-12-27T01:56:55.741Z,374.00
2022-12-27T01:57:25.830Z,372.00
2022-12-27T01:57:55.943Z,372.00
2022-12-27T01:58:26.064Z,374.00
2022-12-27T01:58:56.175Z,376.00
2022-12-27T01:59:26.280Z,374.00
2022-12-27T01:59:56.395Z,374.00
2022-12-27T02:00:26.415Z,375.00
2022-12-27T02:00:56.720Z,377.00
2022-12-27T02:01:26.667Z,379.00
2022-12-27T02:01:56.710Z,380.00
2022-12-27T02:02:26.820Z,375.00
2022-12-27T02:02:56.648Z,375.00
2022-12-27T02:03:26.754Z,373.00
2022-12-27T02:03:56.870Z,375.00
2022-12-27T02:04:26.979Z,374.00
2022-12-27T02:04:57.094Z,377.00
2022-12-27T02:05:27.216Z,376.00
2022-12-27T02:05:57.327Z,374.00
2022-12-27T02:06:27.437Z,376.00
2022-12-27T02:06:57.552Z,374.00
2022-12-27T02:07:27.669Z,372.00
2022-12-27T02:07:57.789Z,373.00
2022-12-27T02:08:27.896Z,372.00
2022-12-27T02:08:58.002Z,371.00
2022-12-27T02:09:28.122Z,370.00
2022-12-27T02:09:58.232Z,370.00
2022-12-27T02:10:28.355Z,369.00
2022-12-27T02:10:58.376Z,367.00
2022-12-27T02:11:28.490Z,368.00
2022-12-27T02:11:58.606Z,367.00
2022-12-27T02:12:28.720Z,368.00
2022-12-27T02:12:58.833Z,368.00
2022-12-27T02:13:28.967Z,370.00
2022-12-27T02:13:58.954Z,370.00
2022-12-27T02:14:29.065Z,370.00
2022-12-27T02:14:59.175Z,370.00
2022-12-27T02:15:29.295Z,371.00
2022-12-27T02:15:59.295Z,371.00
2022-12-27T02:16:29.433Z,371.00
2022-12-27T02:16:59.490Z,370.00
2022-12-27T02:17:29.502Z,371.00
2022-12-27T02:17:59.607Z,371.00
2022-12-27T02:18:29.750Z,369.00
2022-12-27T02:18:59.730Z,369.00
2022-12-27T02:19:29.843Z,372.00
2022-12-27T02:19:59.949Z,371.00
2022-12-27T02:20:30.055Z,371.00
2022-12-27T02:21:00.167Z,370.00
2022-12-27T02:21:30.297Z,369.00
2022-12-27T02:22:00.401Z,369.00
2022-12-27T02:22:30.507Z,370.00
2022-12-27T02:23:00.615Z,368.00
2022-12-27T02:23:36.080Z,370.00
2022-12-27T02:24:00.750Z,372.00
2022-12-27T02:24:30.781Z,373.00
2022-12-27T02:25:00.890Z,373.00
2022-12-27T02:25:30.961Z,373.00
2022-12-27T02:26:01.039Z,372.00
2022-12-27T02:26:31.108Z,372.00
2022-12-27T02:27:01.183Z,373.00
2022-12-27T02:27:31.261Z,372.00
2022-12-27T02:28:01.327Z,372.00
2022-12-27T02:28:31.404Z,373.00
2022-12-27T02:29:01.478Z,372.00
2022-12-27T02:29:31.568Z,373.00
2022-12-27T02:30:01.637Z,372.00
2022-12-27T02:30:31.798Z,371.00
2022-12-27T02:31:01.917Z,372.00
2022-12-27T02:31:31.871Z,373.00
2022-12-27T02:32:01.975Z,374.00
2022-12-27T02:32:32.044Z,372.00
2022-12-27T02:33:02.105Z,372.00
2022-12-27T02:33:32.186Z,369.00
2022-12-27T02:34:02.259Z,370.00
2022-12-27T02:34:32.372Z,369.00
2022-12-27T02:35:02.488Z,370.00
2022-12-27T02:35:32.591Z,368.00
2022-12-27T02:36:02.706Z,367.00
2022-12-27T02:36:32.816Z,368.00
2022-12-27T02:37:02.935Z,368.00
2022-12-27T02:37:33.042Z,367.00
2022-12-27T02:38:03.154Z,367.00
2022-12-27T02:38:33.271Z,367.00
2022-12-27T02:39:03.393Z,369.00
2022-12-27T02:39:33.494Z,371.00
2022-12-27T02:40:03.605Z,370.00
2022-12-27T02:40:33.753Z,371.00
2022-12-27T02:41:03.833Z,372.00
2022-12-27T02:41:33.956Z,371.00
2022-12-27T02:42:04.064Z,369.00
2022-12-27T02:42:34.179Z,369.00
2022-12-27T02:43:04.301Z,367.00
2022-12-27T02:43:34.287Z,367.00
2022-12-27T02:44:04.406Z,367.00
2022-12-27T02:44:34.523Z,368.00
2022-12-27T02:45:04.630Z,370.00
2022-12-27T02:45:34.755Z,371.00
2022-12-27T02:46:04.900Z,372.00
2022-12-27T02:46:34.951Z,376.00
2022-12-27T02:47:04.961Z,376.00
2022-12-27T02:47:35.147Z,376.00
2022-12-27T02:48:05.127Z,373.00
2022-12-27T02:48:35.218Z,371.00
2022-12-27T02:49:05.340Z,372.00
2022-12-27T02:49:35.452Z,371.00
2022-12-27T02:50:05.566Z,371.00
2022-12-27T02:50:35.703Z,370.00
2022-12-27T02:51:05.674Z,372.00
2022-12-27T02:51:35.791Z,372.00
2022-12-27T02:52:05.907Z,371.00
2022-12-27T02:52:36.014Z,370.00
2022-12-27T02:53:06.129Z,369.00
2022-12-27T02:53:36.234Z,369.00
2022-12-27T02:54:06.346Z,370.00
2022-12-27T02:54:36.463Z,371.00
2022-12-27T02:55:06.582Z,373.00
2022-12-27T02:55:36.707Z,373.00
2022-12-27T02:56:06.704Z,373.00
2022-12-27T02:56:36.700Z,373.00
2022-12-27T02:57:06.805Z,374.00
2022-12-27T02:57:36.921Z,375.00
2022-12-27T02:58:07.047Z,374.00
2022-12-27T02:58:37.157Z,373.00
2022-12-27T02:59:07.261Z,372.00
2022-12-27T02:59:37.371Z,372.00
2022-12-27T03:00:07.484Z,372.00
2022-12-27T03:00:37.613Z,370.00
2022-12-27T03:01:07.633Z,370.00
2022-12-27T03:01:37.688Z,370.00
2022-12-27T03:02:07.768Z,371.00
2022-12-27T03:02:37.792Z,372.00
2022-12-27T03:03:07.815Z,371.00
2022-12-27T03:03:44.042Z,373.00
2022-12-27T03:04:07.812Z,375.00
2022-12-27T03:04:37.935Z,374.00
2022-12-27T03:05:07.921Z,372.00
2022-12-27T03:05:38.033Z,371.00
2022-12-27T03:06:08.150Z,371.00
2022-12-27T03:06:38.260Z,371.00
2022-12-27T03:07:08.378Z,372.00
2022-12-27T03:07:38.489Z,372.00
2022-12-27T03:08:08.601Z,370.00
2022-12-27T03:08:38.721Z,370.00
2022-12-27T03:09:08.716Z,371.00
2022-12-27T03:09:38.828Z,371.00
2022-12-27T03:10:08.946Z,372.00
2022-12-27T03:10:39.074Z,371.00
2022-12-27T03:11:09.060Z,369.00
2022-12-27T03:11:39.171Z,368.00
2022-12-27T03:12:09.291Z,368.00
2022-12-27T03:12:39.406Z,370.00
2022-12-27T03:13:09.531Z,370.00
2022-12-27T03:13:39.629Z,370.00
2022-12-27T03:14:09.741Z,371.00
2022-12-27T03:14:39.858Z,372.00
2022-12-27T03:15:09.971Z,372.00
2022-12-27T03:15:40.179Z,374.00
2022-12-27T03:16:10.216Z,373.00
2022-12-27T03:16:40.208Z,368.00
2022-12-27T03:17:10.321Z,369.00
2022-12-27T03:17:40.477Z,370.00
2022-12-27T03:18:10.559Z,373.00
2022-12-27T03:18:40.693Z,371.00
2022-12-27T03:19:10.788Z,368.00
2022-12-27T03:19:40.904Z,368.00
2022-12-27T03:20:10.895Z,368.00
2022-12-27T03:20:41.006Z,368.00
2022-12-27T03:21:11.124Z,370.00
2022-12-27T03:21:41.229Z,371.00
2022-12-27T03:22:11.368Z,369.00
2022-12-27T03:22:41.346Z,368.00
2022-12-27T03:23:11.450Z,370.00
2022-12-27T03:23:41.560Z,369.00
2022-12-27T03:24:11.672Z,370.00
2022-12-27T03:25:20.665Z,355.00
2022-12-27T03:25:50.732Z,369.00
2022-12-27T03:26:20.805Z,374.00
2022-12-27T03:26:50.886Z,372.00
2022-12-27T03:27:20.965Z,372.00
2022-12-27T03:27:51.046Z,374.00
2022-12-27T03:28:21.125Z,377.00
2022-12-27T03:28:51.200Z,377.00
2022-12-27T03:29:21.265Z,375.00
2022-12-27T03:29:51.337Z,374.00
2022-12-27T03:30:21.420Z,373.00
2022-12-27T03:30:51.608Z,372.00
2022-12-27T03:31:21.571Z,373.00
2022-12-27T03:31:51.620Z,373.00
2022-12-27T03:32:21.686Z,371.00
2022-12-27T03:32:51.787Z,371.00
2022-12-27T03:33:21.830Z,372.00
2022-12-27T03:33:51.906Z,370.00
2022-12-27T03:34:21.985Z,369.00
2022-12-27T03:34:52.066Z,367.00
2022-12-27T03:35:22.180Z,366.00
2022-12-27T03:35:52.284Z,366.00
2022-12-27T03:36:22.399Z,365.00
2022-12-27T03:36:52.534Z,365.00
2022-12-27T03:37:22.621Z,366.00
2022-12-27T03:37:52.743Z,363.00
2022-12-27T03:38:22.862Z,364.00
2022-12-27T03:38:52.841Z,361.00
2022-12-27T03:39:22.958Z,363.00
2022-12-27T03:39:53.082Z,362.00
2022-12-27T03:40:23.179Z,361.00
2022-12-27T03:40:53.291Z,361.00
2022-12-27T03:41:23.407Z,361.00
2022-12-27T03:41:53.512Z,364.00
2022-12-27T03:42:23.624Z,363.00
2022-12-27T03:42:53.736Z,363.00
2022-12-27T03:43:23.768Z,363.00
2022-12-27T03:43:53.873Z,364.00
2022-12-27T03:44:24.005Z,365.00
2022-12-27T03:44:54.098Z,366.00
2022-12-27T03:45:24.204Z,366.00
2022-12-27T03:45:54.396Z,365.00
2022-12-27T03:46:24.466Z,365.00
2022-12-27T03:46:54.459Z,365.00
2022-12-27T03:47:24.580Z,364.00
2022-12-27T03:47:54.697Z,365.00
2022-12-27T03:48:24.799Z,367.00
2022-12-27T03:48:54.793Z,368.00
2022-12-27T03:49:24.892Z,367.00
2022-12-27T03:49:55.003Z,369.00
2022-12-27T03:50:25.115Z,367.00
2022-12-27T03:50:55.229Z,368.00
2022-12-27T03:51:25.425Z,367.00
2022-12-27T03:51:55.446Z,367.00
2022-12-27T03:52:25.527Z,368.00
2022-12-27T03:52:55.646Z,369.00
2022-12-27T03:53:25.791Z,368.00
2022-12-27T03:53:55.781Z,368.00
2022-12-27T03:54:25.892Z,369.00
2022-12-27T03:54:56.008Z,370.00
2022-12-27T03:55:31.510Z,370.00
2022-12-27T03:55:56.117Z,372.00
2022-12-27T03:56:26.496Z,372.00
2022-12-27T03:56:56.239Z,373.00
2022-12-27T03:57:26.345Z,372.00
2022-12-27T03:57:56.355Z,372.00
2022-12-27T03:58:26.466Z,374.00
2022-12-27T03:58:56.589Z,374.00
2022-12-27T03:59:26.588Z,374.00
2022-12-27T03:59:56.690Z,375.00
2022-12-27T04:00:26.757Z,376.00
2022-12-27T04:00:56.875Z,376.00
2022-12-27T04:01:27.099Z,375.00
2022-12-27T04:01:57.164Z,374.00
2022-12-27T04:02:27.286Z,377.00
2022-12-27T04:02:57.311Z,375.00
2022-12-27T04:03:27.298Z,376.00
2022-12-27T04:03:57.339Z,376.00
2022-12-27T04:04:27.330Z,375.00
2022-12-27T04:04:57.438Z,375.00
2022-12-27T04:05:27.547Z,375.00
2022-12-27T04:05:57.659Z,374.00
2022-12-27T04:06:27.772Z,372.00
2022-12-27T04:06:57.878Z,370.00
2022-12-27T04:07:27.993Z,369.00
2022-12-27T04:07:58.104Z,370.00
2022-12-27T04:08:28.209Z,370.00
2022-12-27T04:08:58.332Z,371.00
2022-12-27T04:09:28.317Z,371.00
2022-12-27T04:09:58.431Z,371.00
2022-12-27T04:10:28.537Z,371.00
2022-12-27T04:10:58.651Z,371.00
2022-12-27T04:11:28.766Z,372.00
2022-12-27T04:11:58.878Z,371.00
2022-12-27T04:12:28.983Z,369.00
2022-12-27T04:12:59.104Z,370.00
2022-12-27T04:13:29.209Z,370.00
2022-12-27T04:13:59.337Z,370.00
2022-12-27T04:14:29.327Z,370.00
2022-12-27T04:14:59.442Z,370.00
2022-12-27T04:15:29.553Z,372.00
2022-12-27T04:15:59.708Z,373.00
2022-12-27T04:16:29.720Z,374.00
2022-12-27T04:16:59.701Z,373.00
2022-12-27T04:17:29.811Z,372.00
2022-12-27T04:17:59.929Z,371.00
2022-12-27T04:18:30.065Z,371.00
2022-12-27T04:19:00.150Z,371.00
2022-12-27T04:19:30.268Z,374.00
2022-12-27T04:20:00.272Z,373.00
2022-12-27T04:20:30.370Z,371.00
2022-12-27T04:21:00.501Z,371.00
2022-12-27T04:21:30.639Z,369.00
2022-12-27T04:22:00.634Z,368.00
2022-12-27T04:22:30.743Z,368.00
2022-12-27T04:23:00.857Z,366.00
2022-12-27T04:23:30.973Z,367.00
2022-12-27T04:24:01.096Z,368.00
2022-12-27T04:24:31.194Z,368.00
2022-12-27T04:25:01.292Z,366.00
2022-12-27T04:25:31.363Z,367.00
2022-12-27T04:26:01.434Z,367.00
2022-12-27T04:26:31.516Z,367.00
2022-12-27T04:27:01.592Z,370.00
2022-12-27T04:27:31.668Z,370.00
2022-12-27T04:28:01.755Z,369.00
2022-12-27T04:28:31.828Z,368.00
2022-12-27T04:29:01.891Z,369.00
2022-12-27T04:29:31.958Z,368.00
2022-12-27T04:30:02.025Z,370.00
2022-12-27T04:30:32.112Z,373.00
2022-12-27T04:31:02.201Z,373.00
2022-12-27T04:31:32.306Z,374.00
2022-12-27T04:32:02.370Z,376.00
2022-12-27T04:32:32.444Z,377.00
2022-12-27T04:33:02.531Z,376.00
2022-12-27T04:33:32.624Z,375.00
2022-12-27T04:34:02.693Z,376.00
2022-12-27T04:34:32.776Z,374.00
2022-12-27T04:35:02.861Z,376.00
2022-12-27T04:35:32.971Z,376.00
2022-12-27T04:36:06.404Z,375.00
2022-12-27T04:36:33.139Z,374.00
2022-12-27T04:37:03.250Z,373.00
2022-12-27T04:37:33.375Z,374.00
2022-12-27T04:38:03.477Z,374.00
2022-12-27T04:38:33.593Z,375.00
2022-12-27T04:39:03.712Z,375.00
2022-12-27T04:39:33.697Z,375.00
2022-12-27T04:40:03.827Z,373.00
2022-12-27T04:40:33.816Z,371.00
2022-12-27T04:41:03.932Z,370.00
2022-12-27T04:41:33.922Z,371.00
2022-12-27T04:42:04.034Z,372.00
2022-12-27T04:42:34.149Z,372.00
2022-12-27T04:43:04.261Z,370.00
2022-12-27T04:43:34.373Z,370.00
2022-12-27T04:44:04.508Z,371.00
2022-12-27T04:44:34.495Z,369.00
2022-12-27T04:45:05.452Z,371.00
2022-12-27T04:45:34.643Z,370.00
2022-12-27T04:46:04.813Z,370.00
2022-12-27T04:46:34.829Z,370.00
2022-12-27T04:47:04.844Z,371.00
2022-12-27T04:47:34.832Z,371.00
2022-12-27T04:48:04.942Z,369.00
2022-12-27T04:48:35.091Z,368.00
2022-12-27T04:49:05.051Z,367.00
2022-12-27T04:49:35.168Z,366.00
2022-12-27T04:50:05.431Z,366.00
2022-12-27T04:50:35.312Z,365.00
2022-12-27T04:51:05.431Z,365.00
2022-12-27T04:51:35.542Z,365.00
2022-12-27T04:52:05.663Z,367.00
2022-12-27T04:52:35.663Z,368.00
2022-12-27T04:53:05.779Z,370.00
2022-12-27T04:53:35.885Z,369.00
2022-12-27T04:54:05.998Z,368.00
2022-12-27T04:54:36.112Z,366.00
2022-12-27T04:55:06.098Z,366.00
2022-12-27T04:55:36.208Z,366.00
2022-12-27T04:56:06.316Z,368.00
2022-12-27T04:56:36.429Z,365.00
2022-12-27T04:57:06.555Z,366.00
2022-12-27T04:57:36.695Z,368.00
2022-12-27T04:58:06.654Z,368.00
2022-12-27T04:58:36.764Z,368.00
2022-12-27T04:59:06.886Z,367.00
2022-12-27T04:59:36.990Z,366.00
2022-12-27T05:00:07.004Z,366.00
2022-12-27T05:00:37.002Z,369.00
2022-12-27T05:01:13.827Z,371.00
2022-12-27T05:01:37.233Z,371.00
2022-12-27T05:02:07.243Z,371.00
2022-12-27T05:02:37.260Z,371.00
2022-12-27T05:03:07.289Z,369.00
2022-12-27T05:03:37.409Z,366.00
2022-12-27T05:04:07.396Z,367.00
2022-12-27T05:04:37.532Z,368.00
2022-12-27T05:05:07.513Z,369.00
2022-12-27T05:05:37.633Z,369.00
2022-12-27T05:06:07.736Z,368.00
2022-12-27T05:06:37.862Z,367.00
2022-12-27T05:07:07.965Z,368.00
2022-12-27T05:07:38.075Z,369.00
2022-12-27T05:08:08.191Z,367.00
2022-12-27T05:08:38.335Z,368.00
2022-12-27T05:09:08.340Z,370.00
2022-12-27T05:09:38.332Z,372.00
2022-12-27T05:10:08.450Z,370.00
2022-12-27T05:10:38.561Z,369.00
2022-12-27T05:11:08.669Z,370.00
2022-12-27T05:11:38.804Z,369.00
2022-12-27T05:12:08.793Z,367.00
2022-12-27T05:12:38.906Z,367.00
2022-12-27T05:13:09.026Z,365.00
2022-12-27T05:13:39.133Z,366.00
2022-12-27T05:14:09.268Z,367.00
2022-12-27T05:14:39.255Z,368.00
2022-12-27T05:15:09.365Z,368.00
2022-12-27T05:15:39.479Z,369.00
2022-12-27T05:16:09.633Z,369.00
2022-12-27T05:16:39.608Z,368.00
2022-12-27T05:17:09.722Z,367.00
2022-12-27T05:17:39.839Z,366.00
2022-12-27T05:18:09.944Z,366.00
2022-12-27T05:18:40.091Z,366.00
2022-12-27T05:19:10.073Z,366.00
2022-12-27T05:19:40.078Z,367.00
2022-12-27T05:20:10.169Z,367.00
2022-12-27T05:20:40.278Z,369.00
2022-12-27T05:21:10.405Z,370.00
2022-12-27T05:21:40.405Z,369.00
2022-12-27T05:22:10.502Z,371.00
2022-12-27T05:22:40.616Z,370.00
2022-12-27T05:23:10.725Z,369.00
2022-12-27T05:23:40.834Z,368.00
2022-12-27T05:24:10.955Z,369.00
2022-12-27T05:24:40.943Z,369.00
2022-12-27T05:25:11.048Z,369.00
2022-12-27T05:25:41.093Z,370.00
2022-12-27T05:26:11.171Z,368.00
2022-12-27T05:26:41.254Z,367.00
2022-12-27T05:27:11.313Z,368.00
2022-12-27T05:27:41.455Z,368.00
2022-12-27T05:28:11.526Z,367.00
2022-12-27T05:28:41.598Z,367.00
2022-12-27T05:29:11.677Z,369.00
2022-12-27T05:29:41.746Z,370.00
2022-12-27T05:30:11.833Z,371.00
2022-12-27T05:30:41.894Z,369.00
2022-12-27T05:31:12.020Z,368.00
2022-12-27T05:31:42.121Z,367.00
2022-12-27T05:32:13.435Z,365.00
2022-12-27T05:32:42.120Z,365.00
2022-12-27T05:33:12.189Z,366.00
2022-12-27T05:33:42.296Z,364.00
2022-12-27T05:34:12.335Z,363.00
2022-12-27T05:34:42.410Z,363.00
2022-12-27T05:35:12.534Z,365.00
2022-12-27T05:35:42.511Z,365.00
2022-12-27T05:36:12.630Z,364.00
2022-12-27T05:36:42.740Z,367.00
2022-12-27T05:37:12.856Z,367.00
2022-12-27T05:37:42.876Z,367.00
2022-12-27T05:38:12.866Z,367.00
2022-12-27T05:38:42.984Z,368.00
2022-12-27T05:39:13.093Z,367.00
2022-12-27T05:39:43.201Z,367.00
2022-12-27T05:40:13.317Z,364.00
2022-12-27T05:40:43.429Z,363.00
2022-12-27T05:41:13.546Z,363.00
2022-12-27T05:41:43.650Z,363.00
2022-12-27T05:42:13.769Z,365.00
2022-12-27T05:42:43.897Z,369.00
2022-12-27T05:43:13.893Z,369.00
2022-12-27T05:43:43.998Z,367.00
2022-12-27T05:44:14.125Z,366.00
2022-12-27T05:44:44.130Z,365.00
2022-12-27T05:45:14.226Z,366.00
2022-12-27T05:45:44.352Z,364.00
2022-12-27T05:46:14.439Z,366.00
2022-12-27T05:46:44.412Z,366.00
2022-12-27T05:47:14.419Z,365.00
2022-12-27T05:47:44.530Z,363.00
2022-12-27T05:48:14.640Z,364.00
2022-12-27T05:48:44.772Z,365.00
2022-12-27T05:49:14.873Z,365.00
2022-12-27T05:49:44.862Z,365.00
2022-12-27T05:50:14.970Z,364.00
2022-12-27T05:50:45.091Z,364.00
2022-12-27T05:51:15.088Z,363.00
2022-12-27T05:51:45.186Z,363.00
2022-12-27T05:52:15.299Z,363.00
2022-12-27T05:52:45.417Z,364.00
2022-12-27T05:53:15.527Z,365.00
2022-12-27T05:53:45.638Z,364.00
2022-12-27T05:54:15.768Z,364.00
2022-12-27T05:54:45.755Z,365.00
2022-12-27T05:55:15.923Z,363.00
2022-12-27T05:55:45.905Z,363.00
2022-12-27T05:56:16.019Z,363.00
2022-12-27T05:56:46.134Z,363.00
2022-12-27T05:57:16.235Z,365.00
2022-12-27T05:57:46.365Z,366.00
2022-12-27T05:58:16.491Z,366.00
2022-12-27T05:58:46.535Z,366.00
2022-12-27T05:59:16.517Z,366.00
2022-12-27T05:59:46.617Z,365.00
2022-12-27T06:00:16.725Z,364.00
2022-12-27T06:00:46.850Z,365.00
2022-12-27T06:01:16.994Z,365.00
2022-12-27T06:01:47.136Z,364.00
2022-12-27T06:02:17.201Z,363.00
2022-12-27T06:02:47.367Z,364.00
2022-12-27T06:03:17.321Z,363.00
2022-12-27T06:03:47.287Z,362.00
2022-12-27T06:04:17.251Z,364.00
2022-12-27T06:04:47.242Z,366.00
2022-12-27T06:05:17.352Z,365.00
2022-12-27T06:05:47.470Z,365.00
2022-12-27T06:06:17.580Z,366.00
2022-12-27T06:06:47.694Z,368.00
2022-12-27T06:07:17.818Z,369.00
2022-12-27T06:07:47.930Z,369.00
2022-12-27T06:08:18.036Z,370.00
2022-12-27T06:08:48.156Z,370.00
2022-12-27T06:09:18.269Z,369.00
2022-12-27T06:09:48.381Z,369.00
2022-12-27T06:10:18.494Z,370.00
2022-12-27T06:10:48.608Z,371.00
2022-12-27T06:11:18.751Z,372.00
2022-12-27T06:11:48.837Z,374.00
2022-12-27T06:12:18.945Z,375.00
2022-12-27T06:12:49.061Z,374.00
2022-12-27T06:13:19.177Z,374.00
2022-12-27T06:13:49.293Z,373.00
2022-12-27T06:14:19.492Z,373.00
2022-12-27T06:14:49.465Z,373.00
2022-12-27T06:15:19.587Z,374.00
2022-12-27T06:15:49.685Z,374.00